sensor_id;sensor_type;location;lat;lon;timestamp;P1;durP1;ratioP1;P2;durP2;ratioP2
39356;SDS011;25077;50.302;18.996;2022-09-09T00:01:49;5.20;;;3.60;;
39356;SDS011;25077;50.302;18.996;2022-09-09T00:04:57;5.17;;;3.90;;
39356;SDS011;25077;50.302;18.996;2022-09-09T00:08:02;5.67;;;4.13;;
39356;SDS011;25077;50.302;18.996;2022-09-09T00:11:07;6.50;;;4.20;;
39356;SDS011;25077;50.302;18.996;2022-09-09T00:14:15;9.60;;;4.33;;
39356;SDS011;25077;50.302;18.996;2022-09-09T00:17:27;6.00;;;4.57;;
39356;SDS011;25077;50.302;18.996;2022-09-09T00:20:41;6.67;;;4.33;;
39356;SDS011;25077;50.302;18.996;2022-09-09T00:23:48;8.73;;;4.67;;
39356;SDS011;25077;50.302;18.996;2022-09-09T00:26:53;6.57;;;5.20;;
39356;SDS011;25077;50.302;18.996;2022-09-09T00:30:12;7.67;;;4.33;;
39356;SDS011;25077;50.302;18.996;2022-09-09T00:33:17;8.37;;;4.63;;
39356;SDS011;25077;50.302;18.996;2022-09-09T00:36:23;8.27;;;5.30;;
39356;SDS011;25077;50.302;18.996;2022-09-09T00:39:31;6.73;;;5.30;;
39356;SDS011;25077;50.302;18.996;2022-09-09T00:47:07;7.63;;;6.33;;
39356;SDS011;25077;50.302;18.996;2022-09-09T00:50:29;10.03;;;6.37;;
39356;SDS011;25077;50.302;18.996;2022-09-09T00:53:51;9.13;;;6.27;;
39356;SDS011;25077;50.302;18.996;2022-09-09T00:57:12;8.10;;;7.00;;
39356;SDS011;25077;50.302;18.996;2022-09-09T01:00:21;9.57;;;7.20;;
39356;SDS011;25077;50.302;18.996;2022-09-09T01:03:28;10.67;;;7.77;;
39356;SDS011;25077;50.302;18.996;2022-09-09T01:06:36;11.53;;;7.80;;
39356;SDS011;25077;50.302;18.996;2022-09-09T01:09:42;8.80;;;7.70;;
39356;SDS011;25077;50.302;18.996;2022-09-09T01:17:20;13.83;;;8.40;;
39356;SDS011;25077;50.302;18.996;2022-09-09T01:20:39;10.17;;;8.10;;
39356;SDS011;25077;50.302;18.996;2022-09-09T01:23:57;12.60;;;8.63;;
39356;SDS011;25077;50.302;18.996;2022-09-09T01:27:29;14.87;;;9.80;;
39356;SDS011;25077;50.302;18.996;2022-09-09T01:30:33;11.60;;;8.63;;
39356;SDS011;25077;50.302;18.996;2022-09-09T01:33:40;11.43;;;8.57;;
39356;SDS011;25077;50.302;18.996;2022-09-09T01:36:42;12.00;;;8.50;;
39356;SDS011;25077;50.302;18.996;2022-09-09T01:39:48;11.27;;;8.80;;
39356;SDS011;25077;50.302;18.996;2022-09-09T01:47:21;13.00;;;10.17;;
39356;SDS011;25077;50.302;18.996;2022-09-09T01:50:33;10.33;;;9.23;;
39356;SDS011;25077;50.302;18.996;2022-09-09T01:53:36;12.53;;;9.73;;
39356;SDS011;25077;50.302;18.996;2022-09-09T01:56:43;11.87;;;10.10;;
39356;SDS011;25077;50.302;18.996;2022-09-09T02:04:26;15.20;;;9.53;;
39356;SDS011;25077;50.302;18.996;2022-09-09T02:07:40;12.03;;;8.03;;
39356;SDS011;25077;50.302;18.996;2022-09-09T02:10:58;10.53;;;8.50;;
39356;SDS011;25077;50.302;18.996;2022-09-09T02:14:18;13.93;;;8.83;;
39356;SDS011;25077;50.302;18.996;2022-09-09T02:17:25;10.83;;;8.07;;
39356;SDS011;25077;50.302;18.996;2022-09-09T02:20:47;11.27;;;8.33;;
39356;SDS011;25077;50.302;18.996;2022-09-09T02:23:49;10.83;;;8.50;;
39356;SDS011;25077;50.302;18.996;2022-09-09T02:26:54;12.37;;;8.43;;
39356;SDS011;25077;50.302;18.996;2022-09-09T02:34:33;13.70;;;8.10;;
39356;SDS011;25077;50.302;18.996;2022-09-09T02:37:42;9.40;;;8.17;;
39356;SDS011;25077;50.302;18.996;2022-09-09T02:40:46;9.17;;;7.77;;
39356;SDS011;25077;50.302;18.996;2022-09-09T02:43:49;9.63;;;8.10;;
39356;SDS011;25077;50.302;18.996;2022-09-09T02:46:58;15.00;;;8.43;;
39356;SDS011;25077;50.302;18.996;2022-09-09T02:50:15;11.30;;;8.10;;
39356;SDS011;25077;50.302;18.996;2022-09-09T02:53:23;9.23;;;8.00;;
39356;SDS011;25077;50.302;18.996;2022-09-09T02:56:31;10.03;;;8.27;;
39356;SDS011;25077;50.302;18.996;2022-09-09T03:04:08;10.90;;;7.70;;
39356;SDS011;25077;50.302;18.996;2022-09-09T03:07:10;11.23;;;7.33;;
39356;SDS011;25077;50.302;18.996;2022-09-09T03:10:14;9.70;;;7.53;;
39356;SDS011;25077;50.302;18.996;2022-09-09T03:13:16;13.83;;;7.10;;
39356;SDS011;25077;50.302;18.996;2022-09-09T03:16:19;9.67;;;7.90;;
39356;SDS011;25077;50.302;18.996;2022-09-09T03:19:24;12.07;;;7.80;;
39356;SDS011;25077;50.302;18.996;2022-09-09T03:22:26;10.73;;;7.07;;
39356;SDS011;25077;50.302;18.996;2022-09-09T03:25:32;8.73;;;6.50;;
39356;SDS011;25077;50.302;18.996;2022-09-09T03:33:03;17.57;;;7.23;;
39356;SDS011;25077;50.302;18.996;2022-09-09T03:36:08;8.07;;;7.07;;
39356;SDS011;25077;50.302;18.996;2022-09-09T03:39:11;16.00;;;7.43;;
39356;SDS011;25077;50.302;18.996;2022-09-09T03:42:16;11.20;;;7.37;;
39356;SDS011;25077;50.302;18.996;2022-09-09T03:49:48;13.53;;;8.27;;
39356;SDS011;25077;50.302;18.996;2022-09-09T03:52:50;9.67;;;8.20;;
39356;SDS011;25077;50.302;18.996;2022-09-09T03:55:56;10.13;;;8.47;;
39356;SDS011;25077;50.302;18.996;2022-09-09T03:59:02;11.03;;;8.10;;
39356;SDS011;25077;50.302;18.996;2022-09-09T04:02:04;12.20;;;7.57;;
39356;SDS011;25077;50.302;18.996;2022-09-09T04:05:06;11.20;;;8.20;;
39356;SDS011;25077;50.302;18.996;2022-09-09T04:08:09;9.27;;;8.13;;
39356;SDS011;25077;50.302;18.996;2022-09-09T04:11:12;15.70;;;8.77;;
39356;SDS011;25077;50.302;18.996;2022-09-09T04:18:43;11.20;;;8.43;;
39356;SDS011;25077;50.302;18.996;2022-09-09T04:21:48;16.20;;;8.80;;
39356;SDS011;25077;50.302;18.996;2022-09-09T04:24:52;11.63;;;9.17;;
39356;SDS011;25077;50.302;18.996;2022-09-09T04:27:54;14.10;;;9.70;;
39356;SDS011;25077;50.302;18.996;2022-09-09T04:31:03;12.20;;;8.47;;
39356;SDS011;25077;50.302;18.996;2022-09-09T04:34:08;10.40;;;8.33;;
39356;SDS011;25077;50.302;18.996;2022-09-09T04:37:10;13.23;;;8.63;;
39356;SDS011;25077;50.302;18.996;2022-09-09T04:40:13;13.97;;;7.93;;
39356;SDS011;25077;50.302;18.996;2022-09-09T04:47:43;28.40;;;8.30;;
39356;SDS011;25077;50.302;18.996;2022-09-09T04:50:54;11.40;;;7.13;;
39356;SDS011;25077;50.302;18.996;2022-09-09T04:53:57;11.93;;;7.97;;
39356;SDS011;25077;50.302;18.996;2022-09-09T04:57:00;9.90;;;7.33;;
39356;SDS011;25077;50.302;18.996;2022-09-09T05:04:35;8.70;;;7.10;;
39356;SDS011;25077;50.302;18.996;2022-09-09T05:07:39;7.67;;;6.50;;
39356;SDS011;25077;50.302;18.996;2022-09-09T05:10:42;9.53;;;6.67;;
39356;SDS011;25077;50.302;18.996;2022-09-09T05:13:46;9.57;;;6.40;;
39356;SDS011;25077;50.302;18.996;2022-09-09T05:16:48;9.00;;;6.13;;
39356;SDS011;25077;50.302;18.996;2022-09-09T05:19:52;13.83;;;7.13;;
39356;SDS011;25077;50.302;18.996;2022-09-09T05:22:55;12.47;;;6.77;;
39356;SDS011;25077;50.302;18.996;2022-09-09T05:26:01;11.47;;;7.60;;
39356;SDS011;25077;50.302;18.996;2022-09-09T05:33:31;10.57;;;6.73;;
39356;SDS011;25077;50.302;18.996;2022-09-09T05:36:34;10.20;;;6.27;;
39356;SDS011;25077;50.302;18.996;2022-09-09T05:39:37;8.83;;;6.27;;
39356;SDS011;25077;50.302;18.996;2022-09-09T05:42:40;7.40;;;6.30;;
39356;SDS011;25077;50.302;18.996;2022-09-09T05:50:10;10.77;;;6.43;;
39356;SDS011;25077;50.302;18.996;2022-09-09T05:53:14;8.93;;;5.90;;
39356;SDS011;25077;50.302;18.996;2022-09-09T05:56:19;9.43;;;6.23;;
39356;SDS011;25077;50.302;18.996;2022-09-09T05:59:24;9.17;;;5.87;;
39356;SDS011;25077;50.302;18.996;2022-09-09T06:02:29;9.70;;;6.50;;
39356;SDS011;25077;50.302;18.996;2022-09-09T06:05:32;9.33;;;6.03;;
39356;SDS011;25077;50.302;18.996;2022-09-09T06:08:37;7.60;;;5.63;;
39356;SDS011;25077;50.302;18.996;2022-09-09T06:11:42;8.50;;;5.60;;
39356;SDS011;25077;50.302;18.996;2022-09-09T06:19:15;7.97;;;5.67;;
39356;SDS011;25077;50.302;18.996;2022-09-09T06:22:18;8.60;;;5.50;;
39356;SDS011;25077;50.302;18.996;2022-09-09T06:25:20;6.30;;;5.03;;
39356;SDS011;25077;50.302;18.996;2022-09-09T06:28:24;7.77;;;4.57;;
39356;SDS011;25077;50.302;18.996;2022-09-09T06:31:26;8.53;;;4.87;;
39356;SDS011;25077;50.302;18.996;2022-09-09T06:34:32;6.87;;;4.87;;
39356;SDS011;25077;50.302;18.996;2022-09-09T06:37:34;9.23;;;4.73;;
39356;SDS011;25077;50.302;18.996;2022-09-09T06:40:37;7.07;;;5.30;;
39356;SDS011;25077;50.302;18.996;2022-09-09T06:48:20;8.27;;;3.87;;
39356;SDS011;25077;50.302;18.996;2022-09-09T06:51:24;9.00;;;3.27;;
39356;SDS011;25077;50.302;18.996;2022-09-09T06:54:27;4.57;;;3.43;;
39356;SDS011;25077;50.302;18.996;2022-09-09T06:57:29;5.93;;;3.57;;
39356;SDS011;25077;50.302;18.996;2022-09-09T07:05:00;4.87;;;3.60;;
39356;SDS011;25077;50.302;18.996;2022-09-09T07:08:03;4.53;;;3.27;;
39356;SDS011;25077;50.302;18.996;2022-09-09T07:11:06;5.27;;;3.40;;
39356;SDS011;25077;50.302;18.996;2022-09-09T07:14:12;5.60;;;3.60;;
39356;SDS011;25077;50.302;18.996;2022-09-09T07:17:15;4.37;;;3.27;;
39356;SDS011;25077;50.302;18.996;2022-09-09T07:20:18;6.33;;;3.63;;
39356;SDS011;25077;50.302;18.996;2022-09-09T07:23:20;5.83;;;3.20;;
39356;SDS011;25077;50.302;18.996;2022-09-09T07:26:24;6.73;;;2.73;;
39356;SDS011;25077;50.302;18.996;2022-09-09T07:33:55;4.53;;;3.07;;
39356;SDS011;25077;50.302;18.996;2022-09-09T07:36:59;4.33;;;3.10;;
39356;SDS011;25077;50.302;18.996;2022-09-09T07:40:01;3.53;;;3.10;;
39356;SDS011;25077;50.302;18.996;2022-09-09T07:43:06;4.70;;;2.93;;
39356;SDS011;25077;50.302;18.996;2022-09-09T07:50:36;7.07;;;3.57;;
39356;SDS011;25077;50.302;18.996;2022-09-09T07:53:40;8.40;;;5.90;;
39356;SDS011;25077;50.302;18.996;2022-09-09T07:56:42;8.13;;;4.07;;
39356;SDS011;25077;50.302;18.996;2022-09-09T07:59:46;6.20;;;3.00;;
39356;SDS011;25077;50.302;18.996;2022-09-09T08:02:48;3.97;;;2.90;;
39356;SDS011;25077;50.302;18.996;2022-09-09T08:05:50;4.93;;;2.97;;
39356;SDS011;25077;50.302;18.996;2022-09-09T08:08:54;4.40;;;3.00;;
39356;SDS011;25077;50.302;18.996;2022-09-09T08:11:57;4.17;;;2.70;;
39356;SDS011;25077;50.302;18.996;2022-09-09T08:19:28;8.37;;;2.50;;
39356;SDS011;25077;50.302;18.996;2022-09-09T08:22:31;6.40;;;2.57;;
39356;SDS011;25077;50.302;18.996;2022-09-09T08:25:35;4.93;;;2.70;;
39356;SDS011;25077;50.302;18.996;2022-09-09T08:28:37;4.17;;;2.70;;
39356;SDS011;25077;50.302;18.996;2022-09-09T08:36:08;3.47;;;2.50;;
39356;SDS011;25077;50.302;18.996;2022-09-09T08:39:14;7.40;;;2.93;;
39356;SDS011;25077;50.302;18.996;2022-09-09T08:42:32;5.93;;;2.60;;
39356;SDS011;25077;50.302;18.996;2022-09-09T08:45:43;6.23;;;2.20;;
39356;SDS011;25077;50.302;18.996;2022-09-09T08:48:54;3.93;;;2.30;;
39356;SDS011;25077;50.302;18.996;2022-09-09T08:52:11;5.43;;;2.90;;
39356;SDS011;25077;50.302;18.996;2022-09-09T08:55:26;3.60;;;2.50;;
39356;SDS011;25077;50.302;18.996;2022-09-09T08:58:45;3.07;;;2.37;;
39356;SDS011;25077;50.302;18.996;2022-09-09T09:06:26;4.17;;;2.67;;
39356;SDS011;25077;50.302;18.996;2022-09-09T09:09:45;5.87;;;3.03;;
39356;SDS011;25077;50.302;18.996;2022-09-09T09:13:00;6.33;;;2.07;;
39356;SDS011;25077;50.302;18.996;2022-09-09T09:16:06;6.07;;;2.37;;
39356;SDS011;25077;50.302;18.996;2022-09-09T09:19:18;4.67;;;2.00;;
39356;SDS011;25077;50.302;18.996;2022-09-09T09:22:25;5.57;;;2.10;;
39356;SDS011;25077;50.302;18.996;2022-09-09T09:25:38;3.07;;;2.00;;
39356;SDS011;25077;50.302;18.996;2022-09-09T09:28:44;3.00;;;1.87;;
39356;SDS011;25077;50.302;18.996;2022-09-09T09:36:19;2.80;;;1.50;;
39356;SDS011;25077;50.302;18.996;2022-09-09T09:39:25;3.10;;;1.70;;
39356;SDS011;25077;50.302;18.996;2022-09-09T09:42:32;3.90;;;1.67;;
39356;SDS011;25077;50.302;18.996;2022-09-09T09:45:41;4.50;;;1.60;;
39356;SDS011;25077;50.302;18.996;2022-09-09T09:48:56;3.90;;;1.60;;
39356;SDS011;25077;50.302;18.996;2022-09-09T09:52:02;6.32;;;1.83;;
39356;SDS011;25077;50.302;18.996;2022-09-09T09:55:11;2.07;;;1.37;;
39356;SDS011;25077;50.302;18.996;2022-09-09T09:58:19;2.35;;;1.30;;
39356;SDS011;25077;50.302;18.996;2022-09-09T10:05:55;3.53;;;1.40;;
39356;SDS011;25077;50.302;18.996;2022-09-09T10:08:59;2.67;;;1.50;;
39356;SDS011;25077;50.302;18.996;2022-09-09T10:12:04;2.65;;;1.63;;
39356;SDS011;25077;50.302;18.996;2022-09-09T10:15:22;3.50;;;1.67;;
39356;SDS011;25077;50.302;18.996;2022-09-09T10:18:38;2.42;;;1.25;;
39356;SDS011;25077;50.302;18.996;2022-09-09T10:21:52;4.55;;;1.30;;
39356;SDS011;25077;50.302;18.996;2022-09-09T10:25:17;2.85;;;1.30;;
39356;SDS011;25077;50.302;18.996;2022-09-09T10:28:33;1.75;;;1.38;;
39356;SDS011;25077;50.302;18.996;2022-09-09T10:36:16;3.90;;;1.70;;
39356;SDS011;25077;50.302;18.996;2022-09-09T10:39:28;2.42;;;1.20;;
39356;SDS011;25077;50.302;18.996;2022-09-09T10:42:38;2.40;;;1.60;;
39356;SDS011;25077;50.302;18.996;2022-09-09T10:45:43;3.45;;;1.50;;
39356;SDS011;25077;50.302;18.996;2022-09-09T10:48:58;3.33;;;1.40;;
39356;SDS011;25077;50.302;18.996;2022-09-09T10:52:09;3.22;;;2.13;;
39356;SDS011;25077;50.302;18.996;2022-09-09T10:55:17;2.05;;;1.30;;
39356;SDS011;25077;50.302;18.996;2022-09-09T10:58:23;3.25;;;1.25;;
39356;SDS011;25077;50.302;18.996;2022-09-09T11:05:57;3.40;;;1.42;;
39356;SDS011;25077;50.302;18.996;2022-09-09T11:09:02;2.05;;;1.20;;
39356;SDS011;25077;50.302;18.996;2022-09-09T11:12:05;1.73;;;1.10;;
39356;SDS011;25077;50.302;18.996;2022-09-09T11:15:17;3.38;;;1.23;;
39356;SDS011;25077;50.302;18.996;2022-09-09T11:18:22;3.63;;;1.13;;
39356;SDS011;25077;50.302;18.996;2022-09-09T11:21:26;1.45;;;1.10;;
39356;SDS011;25077;50.302;18.996;2022-09-09T11:24:33;1.58;;;0.90;;
39356;SDS011;25077;50.302;18.996;2022-09-09T11:27:40;1.73;;;1.30;;
39356;SDS011;25077;50.302;18.996;2022-09-09T11:35:29;2.05;;;0.80;;
39356;SDS011;25077;50.302;18.996;2022-09-09T11:38:40;2.50;;;1.00;;
39356;SDS011;25077;50.302;18.996;2022-09-09T11:41:47;1.48;;;1.08;;
39356;SDS011;25077;50.302;18.996;2022-09-09T11:44:49;1.80;;;1.00;;
39356;SDS011;25077;50.302;18.996;2022-09-09T11:47:52;2.22;;;0.90;;
39356;SDS011;25077;50.302;18.996;2022-09-09T11:51:00;1.77;;;1.02;;
39356;SDS011;25077;50.302;18.996;2022-09-09T11:57:30;1.65;;;1.02;;
39356;SDS011;25077;50.302;18.996;2022-09-09T12:05:04;2.92;;;1.25;;
39356;SDS011;25077;50.302;18.996;2022-09-09T12:08:15;4.25;;;1.10;;
39356;SDS011;25077;50.302;18.996;2022-09-09T12:11:25;3.75;;;1.23;;
39356;SDS011;25077;50.302;18.996;2022-09-09T12:14:34;2.33;;;1.55;;
39356;SDS011;25077;50.302;18.996;2022-09-09T12:22:05;1.25;;;0.90;;
39356;SDS011;25077;50.302;18.996;2022-09-09T12:25:18;1.40;;;1.00;;
39356;SDS011;25077;50.302;18.996;2022-09-09T12:28:34;1.73;;;1.10;;
39356;SDS011;25077;50.302;18.996;2022-09-09T12:31:49;2.15;;;1.63;;
39356;SDS011;25077;50.302;18.996;2022-09-09T12:34:58;3.90;;;0.98;;
39356;SDS011;25077;50.302;18.996;2022-09-09T12:38:03;1.17;;;0.95;;
39356;SDS011;25077;50.302;18.996;2022-09-09T12:41:20;2.33;;;0.80;;
39356;SDS011;25077;50.302;18.996;2022-09-09T12:44:24;1.52;;;0.98;;
39356;SDS011;25077;50.302;18.996;2022-09-09T12:51:55;3.13;;;1.10;;
39356;SDS011;25077;50.302;18.996;2022-09-09T12:54:59;2.60;;;1.05;;
39356;SDS011;25077;50.302;18.996;2022-09-09T12:58:04;2.28;;;1.20;;
39356;SDS011;25077;50.302;18.996;2022-09-09T13:01:17;2.40;;;1.65;;
39356;SDS011;25077;50.302;18.996;2022-09-09T13:04:23;2.80;;;1.13;;
39356;SDS011;25077;50.302;18.996;2022-09-09T13:07:25;2.45;;;1.15;;
39356;SDS011;25077;50.302;18.996;2022-09-09T13:10:27;2.65;;;1.02;;
39356;SDS011;25077;50.302;18.996;2022-09-09T13:13:35;3.42;;;1.20;;
39356;SDS011;25077;50.302;18.996;2022-09-09T13:21:05;2.08;;;1.10;;
39356;SDS011;25077;50.302;18.996;2022-09-09T13:24:21;2.63;;;1.20;;
39356;SDS011;25077;50.302;18.996;2022-09-09T13:27:30;2.08;;;1.20;;
39356;SDS011;25077;50.302;18.996;2022-09-09T13:30:36;3.47;;;1.13;;
39356;SDS011;25077;50.302;18.996;2022-09-09T13:33:41;2.08;;;1.10;;
39356;SDS011;25077;50.302;18.996;2022-09-09T13:36:46;1.77;;;1.00;;
39356;SDS011;25077;50.302;18.996;2022-09-09T13:39:50;2.60;;;1.00;;
39356;SDS011;25077;50.302;18.996;2022-09-09T13:42:55;1.63;;;1.02;;
39356;SDS011;25077;50.302;18.996;2022-09-09T13:50:26;2.33;;;0.95;;
39356;SDS011;25077;50.302;18.996;2022-09-09T13:53:30;3.38;;;1.17;;
39356;SDS011;25077;50.302;18.996;2022-09-09T13:56:32;4.03;;;1.00;;
39356;SDS011;25077;50.302;18.996;2022-09-09T13:59:35;2.28;;;1.35;;
39356;SDS011;25077;50.302;18.996;2022-09-09T14:07:07;2.17;;;1.15;;
39356;SDS011;25077;50.302;18.996;2022-09-09T14:10:12;2.30;;;0.90;;
39356;SDS011;25077;50.302;18.996;2022-09-09T14:13:14;17.17;;;1.63;;
39356;SDS011;25077;50.302;18.996;2022-09-09T14:16:16;2.50;;;1.10;;
39356;SDS011;25077;50.302;18.996;2022-09-09T14:19:18;3.10;;;0.90;;
39356;SDS011;25077;50.302;18.996;2022-09-09T14:22:22;3.88;;;1.02;;
39356;SDS011;25077;50.302;18.996;2022-09-09T14:25:24;3.20;;;1.30;;
39356;SDS011;25077;50.302;18.996;2022-09-09T14:28:26;2.42;;;1.10;;
39356;SDS011;25077;50.302;18.996;2022-09-09T14:35:57;2.40;;;1.25;;
39356;SDS011;25077;50.302;18.996;2022-09-09T14:39:00;3.17;;;1.10;;
39356;SDS011;25077;50.302;18.996;2022-09-09T14:42:04;1.80;;;0.80;;
39356;SDS011;25077;50.302;18.996;2022-09-09T14:45:07;2.67;;;1.35;;
39356;SDS011;25077;50.302;18.996;2022-09-09T14:52:37;1.98;;;1.20;;
39356;SDS011;25077;50.302;18.996;2022-09-09T14:55:40;3.53;;;1.20;;
39356;SDS011;25077;50.302;18.996;2022-09-09T14:58:42;1.40;;;1.00;;
39356;SDS011;25077;50.302;18.996;2022-09-09T15:01:45;2.58;;;1.15;;
39356;SDS011;25077;50.302;18.996;2022-09-09T15:04:47;2.15;;;1.00;;
39356;SDS011;25077;50.302;18.996;2022-09-09T15:07:50;1.77;;;1.00;;
39356;SDS011;25077;50.302;18.996;2022-09-09T15:10:59;9.07;;;1.40;;
39356;SDS011;25077;50.302;18.996;2022-09-09T15:14:02;2.03;;;1.38;;
39356;SDS011;25077;50.302;18.996;2022-09-09T15:21:32;1.55;;;0.98;;
39356;SDS011;25077;50.302;18.996;2022-09-09T15:24:35;1.67;;;1.02;;
39356;SDS011;25077;50.302;18.996;2022-09-09T15:27:38;2.85;;;0.98;;
39356;SDS011;25077;50.302;18.996;2022-09-09T15:30:40;2.08;;;1.00;;
39356;SDS011;25077;50.302;18.996;2022-09-09T15:33:48;1.42;;;1.13;;
39356;SDS011;25077;50.302;18.996;2022-09-09T15:36:51;2.53;;;1.10;;
39356;SDS011;25077;50.302;18.996;2022-09-09T15:39:54;1.92;;;1.25;;
39356;SDS011;25077;50.302;18.996;2022-09-09T15:43:00;1.27;;;0.93;;
39356;SDS011;25077;50.302;18.996;2022-09-09T15:50:29;1.92;;;1.05;;
39356;SDS011;25077;50.302;18.996;2022-09-09T15:53:32;1.95;;;1.13;;
39356;SDS011;25077;50.302;18.996;2022-09-09T15:56:34;6.53;;;1.17;;
39356;SDS011;25077;50.302;18.996;2022-09-09T15:59:39;6.47;;;1.23;;
39356;SDS011;25077;50.302;18.996;2022-09-09T16:07:09;1.92;;;1.20;;
39356;SDS011;25077;50.302;18.996;2022-09-09T16:10:10;2.88;;;1.10;;
39356;SDS011;25077;50.302;18.996;2022-09-09T16:13:13;3.13;;;1.10;;
39356;SDS011;25077;50.302;18.996;2022-09-09T16:21:53;3.57;;;1.33;;
39356;SDS011;25077;50.302;18.996;2022-09-09T16:24:55;6.73;;;1.33;;
39356;SDS011;25077;50.302;18.996;2022-09-09T16:27:57;5.70;;;1.67;;
39356;SDS011;25077;50.302;18.996;2022-09-09T16:30:59;1.83;;;1.30;;
39356;SDS011;25077;50.302;18.996;2022-09-09T16:34:05;3.83;;;1.20;;
39356;SDS011;25077;50.302;18.996;2022-09-09T16:37:09;6.13;;;1.40;;
39356;SDS011;25077;50.302;18.996;2022-09-09T16:40:11;4.40;;;1.30;;
39356;SDS011;25077;50.302;18.996;2022-09-09T16:43:13;3.80;;;1.50;;
39356;SDS011;25077;50.302;18.996;2022-09-09T16:50:44;4.13;;;1.17;;
39356;SDS011;25077;50.302;18.996;2022-09-09T16:53:47;3.97;;;1.70;;
39356;SDS011;25077;50.302;18.996;2022-09-09T16:56:49;2.33;;;1.17;;
39356;SDS011;25077;50.302;18.996;2022-09-09T16:59:51;5.23;;;1.47;;
39356;SDS011;25077;50.302;18.996;2022-09-09T17:07:21;4.27;;;1.57;;
39356;SDS011;25077;50.302;18.996;2022-09-09T17:10:25;5.20;;;1.47;;
39356;SDS011;25077;50.302;18.996;2022-09-09T17:13:27;5.13;;;1.40;;
39356;SDS011;25077;50.302;18.996;2022-09-09T17:22:05;3.87;;;1.80;;
39356;SDS011;25077;50.302;18.996;2022-09-09T17:25:07;5.67;;;1.80;;
39356;SDS011;25077;50.302;18.996;2022-09-09T17:28:11;5.03;;;1.53;;
39356;SDS011;25077;50.302;18.996;2022-09-09T17:31:13;5.90;;;1.90;;
39356;SDS011;25077;50.302;18.996;2022-09-09T17:34:18;3.00;;;1.80;;
39356;SDS011;25077;50.302;18.996;2022-09-09T17:37:20;6.33;;;2.00;;
39356;SDS011;25077;50.302;18.996;2022-09-09T17:40:21;4.50;;;1.70;;
39356;SDS011;25077;50.302;18.996;2022-09-09T17:43:25;4.40;;;1.67;;
39356;SDS011;25077;50.302;18.996;2022-09-09T17:50:56;5.73;;;2.53;;
39356;SDS011;25077;50.302;18.996;2022-09-09T17:54:00;8.27;;;2.77;;
39356;SDS011;25077;50.302;18.996;2022-09-09T17:57:04;5.50;;;2.27;;
39356;SDS011;25077;50.302;18.996;2022-09-09T18:00:08;3.80;;;2.27;;
39356;SDS011;25077;50.302;18.996;2022-09-09T18:07:41;6.27;;;2.90;;
39356;SDS011;25077;50.302;18.996;2022-09-09T18:10:51;5.13;;;2.87;;
39356;SDS011;25077;50.302;18.996;2022-09-09T18:13:55;8.23;;;3.10;;
39356;SDS011;25077;50.302;18.996;2022-09-09T18:22:38;8.67;;;4.13;;
39356;SDS011;25077;50.302;18.996;2022-09-09T18:25:40;9.87;;;3.80;;
39356;SDS011;25077;50.302;18.996;2022-09-09T18:28:43;8.70;;;4.00;;
39356;SDS011;25077;50.302;18.996;2022-09-09T18:31:49;10.67;;;3.70;;
39356;SDS011;25077;50.302;18.996;2022-09-09T18:34:52;10.90;;;4.40;;
39356;SDS011;25077;50.302;18.996;2022-09-09T18:37:57;13.27;;;3.60;;
39356;SDS011;25077;50.302;18.996;2022-09-09T18:40:59;9.87;;;3.87;;
39356;SDS011;25077;50.302;18.996;2022-09-09T18:44:03;6.30;;;3.60;;
39356;SDS011;25077;50.302;18.996;2022-09-09T18:51:34;4.87;;;3.30;;
39356;SDS011;25077;50.302;18.996;2022-09-09T18:54:38;11.53;;;4.70;;
39356;SDS011;25077;50.302;18.996;2022-09-09T18:57:43;8.27;;;3.70;;
39356;SDS011;25077;50.302;18.996;2022-09-09T19:00:45;10.90;;;4.50;;
39356;SDS011;25077;50.302;18.996;2022-09-09T19:08:15;9.33;;;4.63;;
39356;SDS011;25077;50.302;18.996;2022-09-09T19:11:19;10.87;;;4.67;;
39356;SDS011;25077;50.302;18.996;2022-09-09T19:14:23;9.53;;;4.97;;
39356;SDS011;25077;50.302;18.996;2022-09-09T19:17:25;11.10;;;5.67;;
39356;SDS011;25077;50.302;18.996;2022-09-09T19:20:29;10.53;;;5.07;;
39356;SDS011;25077;50.302;18.996;2022-09-09T19:23:31;8.13;;;4.90;;
39356;SDS011;25077;50.302;18.996;2022-09-09T19:26:35;9.93;;;5.30;;
39356;SDS011;25077;50.302;18.996;2022-09-09T19:29:40;9.20;;;5.50;;
39356;SDS011;25077;50.302;18.996;2022-09-09T19:37:10;8.83;;;4.77;;
39356;SDS011;25077;50.302;18.996;2022-09-09T19:40:12;9.37;;;5.97;;
39356;SDS011;25077;50.302;18.996;2022-09-09T19:43:16;10.77;;;6.20;;
39356;SDS011;25077;50.302;18.996;2022-09-09T19:46:18;8.27;;;5.67;;
39356;SDS011;25077;50.302;18.996;2022-09-09T19:53:19;12.60;;;5.80;;
39356;SDS011;25077;50.302;18.996;2022-09-09T19:56:22;10.50;;;6.37;;
39356;SDS011;25077;50.302;18.996;2022-09-09T19:59:27;13.10;;;5.27;;
39356;SDS011;25077;50.302;18.996;2022-09-09T20:02:30;8.77;;;5.27;;
39356;SDS011;25077;50.302;18.996;2022-09-09T20:05:33;11.80;;;6.47;;
39356;SDS011;25077;50.302;18.996;2022-09-09T20:08:35;8.87;;;5.30;;
39356;SDS011;25077;50.302;18.996;2022-09-09T20:11:39;9.87;;;5.10;;
39356;SDS011;25077;50.302;18.996;2022-09-09T20:14:43;10.17;;;5.97;;
39356;SDS011;25077;50.302;18.996;2022-09-09T20:22:12;10.00;;;5.33;;
39356;SDS011;25077;50.302;18.996;2022-09-09T20:25:14;11.97;;;7.07;;
39356;SDS011;25077;50.302;18.996;2022-09-09T20:28:16;11.73;;;5.67;;
39356;SDS011;25077;50.302;18.996;2022-09-09T20:31:21;11.90;;;5.90;;
39356;SDS011;25077;50.302;18.996;2022-09-09T20:38:52;12.70;;;5.17;;
39356;SDS011;25077;50.302;18.996;2022-09-09T20:41:57;10.27;;;5.07;;
39356;SDS011;25077;50.302;18.996;2022-09-09T20:44:59;9.70;;;5.33;;
39356;SDS011;25077;50.302;18.996;2022-09-09T20:48:03;10.90;;;5.13;;
39356;SDS011;25077;50.302;18.996;2022-09-09T20:51:05;12.63;;;5.50;;
39356;SDS011;25077;50.302;18.996;2022-09-09T20:54:10;11.17;;;5.03;;
39356;SDS011;25077;50.302;18.996;2022-09-09T20:57:13;10.70;;;5.10;;
39356;SDS011;25077;50.302;18.996;2022-09-09T21:00:19;10.03;;;5.40;;
39356;SDS011;25077;50.302;18.996;2022-09-09T21:07:50;8.00;;;4.67;;
39356;SDS011;25077;50.302;18.996;2022-09-09T21:10:52;12.27;;;5.67;;
39356;SDS011;25077;50.302;18.996;2022-09-09T21:13:54;8.40;;;5.30;;
39356;SDS011;25077;50.302;18.996;2022-09-09T21:16:57;11.30;;;5.60;;
39356;SDS011;25077;50.302;18.996;2022-09-09T21:20:06;14.27;;;5.77;;
39356;SDS011;25077;50.302;18.996;2022-09-09T21:23:10;19.03;;;5.93;;
39356;SDS011;25077;50.302;18.996;2022-09-09T21:26:13;14.50;;;6.20;;
39356;SDS011;25077;50.302;18.996;2022-09-09T21:29:17;15.80;;;5.77;;
39356;SDS011;25077;50.302;18.996;2022-09-09T21:32:19;12.30;;;5.67;;
39356;SDS011;25077;50.302;18.996;2022-09-09T21:35:21;10.03;;;5.10;;
39356;SDS011;25077;50.302;18.996;2022-09-09T21:38:25;14.03;;;5.80;;
39356;SDS011;25077;50.302;18.996;2022-09-09T21:41:27;10.83;;;5.50;;
39356;SDS011;25077;50.302;18.996;2022-09-09T21:44:29;12.63;;;5.30;;
39356;SDS011;25077;50.302;18.996;2022-09-09T21:51:59;10.97;;;5.00;;
39356;SDS011;25077;50.302;18.996;2022-09-09T21:55:04;12.13;;;5.47;;
39356;SDS011;25077;50.302;18.996;2022-09-09T21:58:06;9.97;;;5.37;;
39356;SDS011;25077;50.302;18.996;2022-09-09T22:01:09;12.40;;;5.17;;
39356;SDS011;25077;50.302;18.996;2022-09-09T22:08:40;13.43;;;5.10;;
39356;SDS011;25077;50.302;18.996;2022-09-09T22:11:43;11.90;;;5.30;;
39356;SDS011;25077;50.302;18.996;2022-09-09T22:14:45;11.43;;;5.60;;
39356;SDS011;25077;50.302;18.996;2022-09-09T22:17:48;13.63;;;4.73;;
39356;SDS011;25077;50.302;18.996;2022-09-09T22:20:50;11.07;;;5.23;;